Time;durP1;ratioP1;P1;durP2;ratioP2;P2;SDS_P1;SDS_P2;PMS_P1;PMS_P2;Temp;Humidity;BMP_temperature;BMP_pressure;BME280_temperature;BME280_humidity;BME280_pressure;Samples;Min_cycle;Max_cycle;Signal;HPM_P1;HPM_P2
2023/11/01 00:06:16;;;;;;;3.80;1.50;;;;;;;9.65;100.00;98391.81;430667;1274;139447;-63
2023/11/01 00:16:22;;;;;;;2.00;1.80;;;;;;;9.47;100.00;98404.70;430310;1274;140021;-62
2023/11/01 00:26:28;;;;;;;3.80;2.10;;;;;;;9.43;100.00;98409.27;430445;1275;139552;-63
2023/11/01 00:36:34;;;;;;;2.30;2.10;;;;;;;9.46;100.00;98428.77;429500;1274;139411;-64
2023/11/01 00:46:40;;;;;;;1.80;1.60;;;;;;;9.50;100.00;98441.00;429437;1273;139458;-63
2023/11/01 00:56:46;;;;;;;2.30;2.10;;;;;;;9.55;100.00;98447.09;429481;1273;139399;-63
2023/11/01 01:06:52;;;;;;;2.50;1.80;;;;;;;9.61;100.00;98456.08;429415;1273;140827;-62
2023/11/01 01:16:57;;;;;;;3.20;2.10;;;;;;;9.62;100.00;98461.91;429038;1274;139379;-64
2023/11/01 01:27:05;;;;;;;1.90;1.70;;;;;;;9.55;100.00;98467.38;429362;1276;139522;-63
2023/11/01 01:37:11;;;;;;;2.10;1.70;;;;;;;9.30;100.00;98464.05;429689;1273;139369;-62
2023/11/01 01:47:17;;;;;;;2.20;1.50;;;;;;;9.04;100.00;98470.16;429703;1273;139820;-63
2023/11/01 01:57:25;;;;;;;1.80;1.70;;;;;;;8.82;100.00;98476.14;429618;1273;139490;-63
2023/11/01 02:07:29;;;;;;;;;;;;;;;8.63;100.00;98478.27;429389;1274;140542;-62
2023/11/01 02:17:35;;;;;;;2.90;2.10;;;;;;;8.46;100.00;98475.43;429804;1276;125800;-64
2023/11/01 02:27:41;;;;;;;2.80;1.60;;;;;;;8.31;100.00;98482.98;429341;1273;139574;-62
2023/11/01 02:37:48;;;;;;;2.20;1.90;;;;;;;8.18;100.00;98490.49;429565;1273;141240;-63
2023/11/01 02:47:54;;;;;;;2.20;1.70;;;;;;;8.08;100.00;98497.34;429496;1275;139966;-63
2023/11/01 02:58:02;;;;;;;1.80;1.60;;;;;;;7.97;100.00;98503.48;429394;1274;139071;-65
2023/11/01 03:08:09;;;;;;;1.80;1.60;;;;;;;7.89;100.00;98512.09;429334;1273;139963;-62
2023/11/01 03:18:15;;;;;;;1.30;1.20;;;;;;;7.86;100.00;98521.87;429999;1274;139037;-64
2023/11/01 03:28:21;;;;;;;2.10;1.70;;;;;;;7.92;100.00;98542.23;430089;1274;139456;-63
2023/11/01 03:38:27;;;;;;;1.60;1.40;;;;;;;8.04;100.00;98560.57;429516;1274;139572;-63
2023/11/01 03:48:32;;;;;;;2.60;1.70;;;;;;;7.98;100.00;98564.77;430067;1274;139011;-65
2023/11/01 03:58:38;;;;;;;1.10;1.00;;;;;;;7.76;100.00;98565.77;429939;1273;140055;-64
2023/11/01 04:08:44;;;;;;;1.80;1.70;;;;;;;7.61;100.00;98582.97;429762;1275;139381;-63
2023/11/01 04:18:50;;;;;;;1.90;1.70;;;;;;;7.49;100.00;98589.72;429937;1275;139154;-64
2023/11/01 04:28:56;;;;;;;2.40;1.80;;;;;;;7.35;100.00;98605.80;430578;1275;139797;-63
2023/11/01 04:39:03;;;;;;;3.50;1.60;;;;;;;7.37;100.00;98615.36;430200;1273;139466;-63
2023/11/01 04:49:09;;;;;;;1.20;1.20;;;;;;;7.54;100.00;98615.80;430033;1273;139299;-62
2023/11/01 04:59:15;;;;;;;2.60;0.70;;;;;;;7.68;100.00;98626.04;429841;1275;139249;-61
2023/11/01 05:09:21;;;;;;;2.60;2.10;;;;;;;7.78;100.00;98640.17;429635;1273;139886;-62
2023/11/01 05:19:28;;;;;;;1.30;1.20;;;;;;;7.86;100.00;98651.18;430721;1275;140382;-63
2023/11/01 05:29:34;;;;;;;2.10;1.90;;;;;;;7.97;100.00;98659.64;431153;1275;141946;-62
2023/11/01 05:39:40;;;;;;;4.80;1.70;;;;;;;8.06;100.00;98672.11;430906;1274;139460;-62
2023/11/01 05:49:46;;;;;;;3.30;1.70;;;;;;;8.11;100.00;98687.45;431759;1275;140006;-63
2023/11/01 05:59:53;;;;;;;1.80;1.00;;;;;;;8.17;100.00;98699.31;429883;1276;139241;-62
2023/11/01 06:09:59;;;;;;;0.90;0.90;;;;;;;8.23;100.00;98713.35;429950;1276;139334;-62
2023/11/01 06:20:06;;;;;;;1.00;0.50;;;;;;;8.29;100.00;98723.90;430473;1275;140798;-66
2023/11/01 06:30:14;;;;;;;1.10;1.00;;;;;;;8.45;100.00;98724.77;431198;1275;139179;-67
2023/11/01 06:40:20;;;;;;;1.30;1.20;;;;;;;9.16;100.00;98736.70;430687;1274;139657;-67
2023/11/01 06:50:25;;;;;;;1.90;1.10;;;;;;;11.85;99.93;98744.08;430383;1272;211259;-69
2023/11/01 07:00:33;;;;;;;1.90;1.20;;;;;;;14.07;97.39;98737.38;430695;1273;140449;-67
2023/11/01 07:10:40;;;;;;;1.50;0.90;;;;;;;14.90;94.30;98736.88;431268;1275;139248;-67
2023/11/01 07:20:45;;;;;;;1.00;0.90;;;;;;;14.96;90.77;98751.85;429684;1275;140665;-67
2023/11/01 07:30:51;;;;;;;1.30;0.80;;;;;;;13.90;89.18;98771.30;429238;1275;140102;-66
2023/11/01 07:40:57;;;;;;;4.00;1.20;;;;;;;12.81;88.91;98776.42;429771;1274;138897;-66
2023/11/01 07:51:05;;;;;;;1.40;1.30;;;;;;;11.95;89.30;98779.57;429968;1275;140723;-66
2023/11/01 08:01:12;;;;;;;2.30;0.90;;;;;;;12.08;90.25;98793.22;430219;1275;140363;-66
2023/11/01 08:11:17;;;;;;;1.50;1.40;;;;;;;11.87;89.37;98786.50;431628;1275;140359;-67
2023/11/01 08:21:23;;;;;;;1.10;0.90;;;;;;;11.56;89.59;98802.52;429572;1275;139323;-66
2023/11/01 08:31:29;;;;;;;4.60;1.40;;;;;;;11.34;89.59;98813.74;429249;1275;139362;-65
2023/11/01 08:41:35;;;;;;;3.30;1.10;;;;;;;11.59;90.10;98817.84;429586;1276;139311;-67
2023/11/01 08:51:41;;;;;;;1.30;0.90;;;;;;;11.87;89.49;98822.11;429241;1276;139558;-66
2023/11/01 09:01:47;;;;;;;3.10;0.80;;;;;;;12.18;89.16;98825.05;429101;1276;139910;-66
2023/11/01 09:11:53;;;;;;;0.70;0.70;;;;;;;12.21;87.77;98845.31;429359;1276;140059;-65
2023/11/01 09:21:58;;;;;;;2.60;1.30;;;;;;;12.14;87.17;98852.08;429298;1274;139717;-66
2023/11/01 09:32:05;;;;;;;1.10;0.80;;;;;;;11.99;86.97;98857.14;429200;1276;140275;-66
2023/11/01 09:42:19;;;;;;;1.10;0.80;;;;;;;11.77;86.86;98860.11;429889;1274;140448;-66
2023/11/01 09:52:26;;;;;;;1.00;0.80;;;;;;;11.28;87.08;98864.44;429945;1276;139885;-66
2023/11/01 10:02:32;;;;;;;3.20;2.00;;;;;;;11.11;89.57;98858.41;430897;1274;139278;-66
2023/11/01 10:12:40;;;;;;;2.10;1.60;;;;;;;11.22;90.58;98854.23;429716;1274;139251;-65
2023/11/01 10:22:46;;;;;;;1.20;1.00;;;;;;;11.27;91.72;98850.20;429186;1275;140548;-66
2023/11/01 10:32:59;;;;;;;2.00;1.80;;;;;;;11.46;92.06;98843.98;429028;1273;139830;-66
2023/11/01 10:43:06;;;;;;;1.00;1.00;;;;;;;11.52;92.53;98849.32;429579;1273;140579;-65
2023/11/01 10:53:12;;;;;;;1.50;1.30;;;;;;;11.39;92.41;98849.45;429149;1275;140604;-66
2023/11/01 11:03:26;;;;;;;1.30;1.20;;;;;;;11.10;92.65;98843.77;429028;1276;139364;-66
2023/11/01 11:13:32;;;;;;;1.10;1.10;;;;;;;11.00;93.33;98845.27;429114;1274;139616;-65
2023/11/01 11:23:39;;;;;;;2.50;1.60;;;;;;;11.16;94.15;98849.64;429637;1275;139425;-66
2023/11/01 11:34:12;;;;;;;4.60;2.00;;;;;;;11.27;94.31;98853.53;430952;1275;139978;-66
2023/11/01 11:44:19;;;;;;;3.20;1.90;;;;;;;11.21;94.18;98850.83;429332;1272;139297;-65
2023/11/01 11:54:27;;;;;;;5.30;2.40;;;;;;;11.12;94.53;98845.91;429521;1275;139184;-67
2023/11/01 12:04:35;;;;;;;6.80;2.60;;;;;;;11.13;94.74;98840.40;430706;1275;139771;-66
2023/11/01 12:14:46;;;;;;;4.90;3.00;;;;;;;11.04;94.54;98833.02;430736;1273;139776;-66
2023/11/01 12:24:55;;;;;;;5.00;3.60;;;;;;;11.04;95.22;98835.15;429615;1274;140978;-66
2023/11/01 12:35:06;;;;;;;8.90;4.60;;;;;;;11.11;95.43;98834.27;431241;1272;139300;-67
2023/11/01 12:45:13;;;;;;;4.20;3.80;;;;;;;11.25;95.90;98830.92;429442;1273;139361;-66
2023/11/01 12:55:19;;;;;;;12.30;8.20;;;;;;;11.54;96.24;98822.51;429909;1273;139767;-66
2023/11/01 13:05:26;;;;;;;8.80;5.50;;;;;;;11.76;95.95;98809.98;429289;1276;142143;-66
2023/11/01 13:15:32;;;;;;;13.50;6.70;;;;;;;11.83;95.68;98798.77;429325;1274;139572;-65
2023/11/01 13:25:38;;;;;;;6.90;5.30;;;;;;;11.82;95.63;98807.95;429817;1275;140484;-65
2023/11/01 13:35:44;;;;;;;6.60;5.10;;;;;;;11.73;95.72;98809.95;430331;1273;139705;-64
2023/11/01 13:45:50;;;;;;;7.10;5.20;;;;;;;11.62;95.87;98816.01;429271;1274;139312;-66
2023/11/01 13:55:56;;;;;;;8.20;6.30;;;;;;;11.50;96.25;98810.17;429381;1273;141497;-66
2023/11/01 14:06:02;;;;;;;12.30;6.40;;;;;;;11.36;96.63;98799.52;429798;1275;139223;-66
2023/11/01 14:16:09;;;;;;;9.90;7.50;;;;;;;11.22;96.95;98797.66;429411;1276;141599;-65
2023/11/01 14:26:15;;;;;;;10.70;7.70;;;;;;;11.13;97.74;98799.25;431346;1273;141571;-68
2023/11/01 14:36:21;;;;;;;13.50;10.80;;;;;;;11.12;98.24;98787.62;430598;1273;139425;-67
2023/11/01 14:46:27;;;;;;;10.90;8.30;;;;;;;11.01;98.27;98782.84;430121;1275;140513;-67
2023/11/01 14:56:33;;;;;;;8.20;6.10;;;;;;;10.69;98.26;98778.19;429436;1274;139985;-66
2023/11/01 15:06:39;;;;;;;8.00;7.20;;;;;;;10.24;98.81;98773.25;429466;1273;139850;-64
2023/11/01 15:16:47;;;;;;;8.60;7.70;;;;;;;9.85;99.62;98764.65;429551;1273;139603;-66
2023/11/01 15:26:53;;;;;;;11.90;8.70;;;;;;;9.46;100.00;98758.16;429358;1275;139616;-66
2023/11/01 15:37:01;;;;;;;12.10;7.60;;;;;;;9.10;100.00;98765.63;431111;1272;139711;-67
2023/11/01 15:47:08;;;;;;;9.60;8.70;;;;;;;8.72;100.00;98772.27;429850;1274;142150;-66
2023/11/01 15:57:14;;;;;;;18.70;16.50;;;;;;;8.33;100.00;98774.39;429795;1274;140615;-66
2023/11/01 16:07:21;;;;;;;20.50;18.20;;;;;;;8.06;100.00;98777.73;430746;1273;139683;-66
2023/11/01 16:17:27;;;;;;;14.60;12.90;;;;;;;7.92;100.00;98777.43;430623;1273;139668;-67
2023/11/01 16:27:32;;;;;;;15.10;13.50;;;;;;;7.75;100.00;98769.11;429796;1273;139391;-66
2023/11/01 16:37:38;;;;;;;16.30;13.30;;;;;;;7.68;100.00;98772.20;430098;1275;140721;-66
2023/11/01 16:47:45;;;;;;;20.70;15.90;;;;;;;7.60;100.00;98772.89;429765;1273;139740;-66
2023/11/01 16:57:51;;;;;;;21.60;16.30;;;;;;;7.50;100.00;98763.07;429406;1274;139694;-65
2023/11/01 17:07:57;;;;;;;18.70;16.90;;;;;;;7.40;100.00;98756.07;429490;1273;141183;-66
2023/11/01 17:18:04;;;;;;;19.60;15.30;;;;;;;7.29;100.00;98758.67;429313;1271;141185;-66
2023/11/01 17:28:20;;;;;;;21.20;16.30;;;;;;;7.25;100.00;98749.49;429681;1272;139510;-66
2023/11/01 17:38:36;;;;;;;22.00;19.40;;;;;;;7.21;100.00;98754.15;430319;1273;140445;-65
2023/11/01 17:48:42;;;;;;;25.00;20.20;;;;;;;7.11;100.00;98750.73;429841;1273;139638;-67
2023/11/01 17:58:50;;;;;;;27.80;21.60;;;;;;;7.05;100.00;98744.17;429757;1273;139863;-65
2023/11/01 18:08:57;;;;;;;28.20;21.90;;;;;;;6.96;100.00;98738.79;429170;1275;139729;-65
2023/11/01 18:19:03;;;;;;;32.80;24.30;;;;;;;6.87;100.00;98734.63;430680;1274;139669;-66
2023/11/01 18:29:10;;;;;;;29.70;24.70;;;;;;;6.76;100.00;98734.44;429257;1274;139721;-65
2023/11/01 18:39:22;;;;;;;27.30;21.90;;;;;;;6.66;100.00;98733.88;429461;1275;140027;-66
2023/11/01 18:49:53;;;;;;;31.40;24.50;;;;;;;6.56;100.00;98730.98;429617;1274;139561;-66
2023/11/01 18:59:59;;;;;;;27.50;22.30;;;;;;;6.48;100.00;98721.57;429526;1273;188983;-66
2023/11/01 19:10:09;;;;;;;26.10;22.70;;;;;;;6.42;100.00;98718.23;430020;1272;139493;-65
2023/11/01 19:20:15;;;;;;;27.60;21.20;;;;;;;6.35;100.00;98719.69;430532;1272;140327;-65
2023/11/01 19:30:21;;;;;;;19.60;17.20;;;;;;;6.35;100.00;98716.60;430182;1273;139456;-66
2023/11/01 19:40:27;;;;;;;20.70;16.60;;;;;;;6.35;100.00;98708.07;429700;1273;140097;-65
2023/11/01 19:50:33;;;;;;;20.20;16.20;;;;;;;6.30;100.00;98707.30;429489;1275;140389;-65
2023/11/01 20:00:41;;;;;;;21.90;17.00;;;;;;;6.24;100.00;98693.27;429692;1273;139530;-68
2023/11/01 20:10:47;;;;;;;18.90;16.70;;;;;;;6.20;100.00;98686.20;429902;1275;139492;-68
2023/11/01 20:20:53;;;;;;;20.10;15.60;;;;;;;6.18;100.00;98674.34;430046;1273;140130;-70
2023/11/01 20:30:59;;;;;;;23.30;17.50;;;;;;;6.13;100.00;98662.11;429895;1274;139390;-68
2023/11/01 20:41:05;;;;;;;23.00;18.30;;;;;;;6.05;100.00;98663.65;430265;1273;140416;-68
2023/11/01 20:51:13;;;;;;;24.70;18.70;;;;;;;5.93;100.00;98656.30;430546;1273;141249;-67
2023/11/01 21:01:19;;;;;;;20.50;17.20;;;;;;;5.86;100.00;98649.11;430538;1275;139426;-69
2023/11/01 21:11:25;;;;;;;20.20;17.10;;;;;;;5.79;100.00;98636.49;429340;1275;139280;-68
2023/11/01 21:21:31;;;;;;;20.90;16.60;;;;;;;5.72;100.00;98626.66;429489;1273;139571;-69
2023/11/01 21:31:37;;;;;;;21.90;18.00;;;;;;;5.62;100.00;98619.61;429592;1273;143237;-68
2023/11/01 21:41:45;;;;;;;22.70;18.30;;;;;;;5.51;100.00;98625.79;429232;1275;139599;-67
2023/11/01 21:51:51;;;;;;;23.90;19.30;;;;;;;5.44;100.00;98624.30;429299;1275;139531;-68
2023/11/01 22:01:56;;;;;;;21.40;17.10;;;;;;;5.42;100.00;98613.29;429176;1273;141349;-68
2023/11/01 22:12:02;;;;;;;20.20;18.00;;;;;;;5.39;100.00;98604.30;429507;1274;139469;-69
2023/11/01 22:22:51;;;;;;;25.80;16.70;;;;;;;5.34;100.00;98598.13;429585;1275;139396;-68
2023/11/01 22:32:58;;;;;;;18.70;15.50;;;;;;;5.32;100.00;98599.09;429340;1273;139505;-63
2023/11/01 22:43:04;;;;;;;18.30;15.90;;;;;;;5.32;100.00;98598.23;429484;1275;139397;-63
2023/11/01 22:53:09;;;;;;;17.90;14.70;;;;;;;5.29;100.00;98588.88;429420;1273;139993;-62
2023/11/01 23:03:15;;;;;;;21.10;14.50;;;;;;;5.27;100.00;98582.73;429529;1274;139550;-62
2023/11/01 23:13:21;;;;;;;21.00;15.10;;;;;;;5.26;100.00;98577.92;429870;1271;139571;-63
2023/11/01 23:23:31;;;;;;;18.70;16.20;;;;;;;5.26;100.00;98570.99;429593;1275;140750;-63
2023/11/01 23:33:39;;;;;;;18.50;14.70;;;;;;;5.24;100.00;98564.70;429585;1271;140497;-61
2023/11/01 23:43:46;;;;;;;17.50;14.60;;;;;;;5.23;100.00;98563.55;429624;1273;140926;-62
2023/11/01 23:53:52;;;;;;;18.60;13.90;;;;;;;5.25;100.00;98550.60;429433;1275;139371;-64
